createdAt,value
2022-07-26T00:00:45.356Z,95957.44
2022-07-26T00:03:11.791Z,95965.22
2022-07-26T00:05:38.188Z,95968.22
2022-07-26T00:08:04.625Z,95967.03
2022-07-26T00:10:31.052Z,95961.47
2022-07-26T00:12:57.447Z,95973.59
2022-07-26T00:15:23.893Z,95966.97
2022-07-26T00:17:50.272Z,95960.63
2022-07-26T00:20:16.673Z,95963.00
2022-07-26T00:22:43.137Z,95968.66
2022-07-26T00:25:09.535Z,95972.72
2022-07-26T00:27:35.908Z,95978.53
2022-07-26T00:30:02.425Z,95973.72
2022-07-26T00:32:28.869Z,95974.34
2022-07-26T00:34:55.336Z,95977.94
2022-07-26T00:37:21.795Z,95967.44
2022-07-26T00:39:48.205Z,95971.66
2022-07-26T00:42:14.605Z,95974.97
2022-07-26T00:44:41.142Z,95971.03
2022-07-26T00:47:07.554Z,95976.75
2022-07-26T00:49:33.982Z,95973.91
2022-07-26T00:52:00.465Z,95978.59
2022-07-26T00:54:26.903Z,95974.09
2022-07-26T00:56:55.218Z,95979.78
2022-07-26T00:59:21.794Z,95972.84
2022-07-26T01:01:48.330Z,95969.25
2022-07-26T01:04:14.808Z,95980.16
2022-07-26T01:06:41.246Z,95973.53
2022-07-26T01:09:07.724Z,95973.41
2022-07-26T01:11:34.115Z,95969.31
2022-07-26T01:14:00.550Z,95961.38
2022-07-26T01:16:27.055Z,95971.41
2022-07-26T01:18:53.596Z,95967.19
2022-07-26T01:21:20.024Z,95971.53
2022-07-26T01:23:46.411Z,95967.34
2022-07-26T01:26:13.870Z,95977.91
2022-07-26T01:28:40.577Z,95971.59
2022-07-26T01:31:07.008Z,95964.84
2022-07-26T01:33:33.420Z,95963.44
2022-07-26T01:35:59.988Z,95967.75
2022-07-26T01:38:26.416Z,95963.13
2022-07-26T01:40:52.893Z,95969.72
2022-07-26T01:43:19.332Z,95963.69
2022-07-26T01:45:46.652Z,95975.66
2022-07-26T01:48:13.051Z,95970.28
2022-07-26T01:50:39.531Z,95971.16
2022-07-26T01:53:06.295Z,95971.56
2022-07-26T01:55:32.919Z,95973.19
2022-07-26T01:58:00.514Z,95970.09
2022-07-26T02:00:26.933Z,95976.78
2022-07-26T02:02:53.426Z,95986.25
2022-07-26T02:05:20.064Z,95979.66
2022-07-26T02:07:46.541Z,95983.81
2022-07-26T02:10:12.947Z,95986.75
2022-07-26T02:12:40.975Z,95980.28
2022-07-26T02:15:07.373Z,95984.16
2022-07-26T02:17:33.759Z,95979.22
2022-07-26T02:20:00.199Z,95978.59
2022-07-26T02:22:26.622Z,95977.53
2022-07-26T02:24:53.344Z,95980.88
2022-07-26T02:27:19.843Z,95989.63
2022-07-26T02:29:46.306Z,95979.16
2022-07-26T02:32:12.768Z,95981.84
2022-07-26T02:34:39.353Z,95981.56
2022-07-26T02:37:05.746Z,95977.53
2022-07-26T02:39:32.143Z,95984.91
2022-07-26T02:41:58.648Z,95986.69
2022-07-26T02:44:25.039Z,95982.22
2022-07-26T02:46:51.594Z,95975.91
2022-07-26T02:49:18.403Z,95982.16
2022-07-26T02:51:44.790Z,95973.34
2022-07-26T02:54:11.566Z,95965.69
2022-07-26T02:56:38.396Z,95965.28
2022-07-26T02:59:04.770Z,95961.63
2022-07-26T03:01:31.194Z,95966.56
2022-07-26T03:03:57.678Z,95971.22
2022-07-26T03:06:24.102Z,95979.41
2022-07-26T03:08:50.505Z,95971.34
2022-07-26T03:11:16.981Z,95966.16
2022-07-26T03:13:43.431Z,95965.38
2022-07-26T03:16:09.883Z,95974.34
2022-07-26T03:18:36.566Z,95962.81
2022-07-26T03:21:02.977Z,95956.31
2022-07-26T03:23:29.352Z,95967.50
2022-07-26T03:25:55.775Z,95967.22
2022-07-26T03:28:22.162Z,95962.69
2022-07-26T03:30:48.588Z,95965.09
2022-07-26T03:33:15.077Z,95970.91
2022-07-26T03:35:41.480Z,95970.91
2022-07-26T03:38:08.320Z,95961.19
2022-07-26T03:40:34.779Z,95963.47
2022-07-26T03:43:01.267Z,95965.09
2022-07-26T03:45:29.313Z,95963.56
2022-07-26T03:47:55.849Z,95969.81
2022-07-26T03:50:22.245Z,95968.97
2022-07-26T03:52:48.685Z,95961.50
2022-07-26T03:55:15.117Z,95956.81
2022-07-26T03:57:41.495Z,95959.44
2022-07-26T04:00:07.902Z,95964.94
2022-07-26T04:02:34.339Z,95956.38
2022-07-26T04:05:00.731Z,95958.63
2022-07-26T04:07:27.381Z,95964.78
2022-07-26T04:09:53.837Z,95956.38
2022-07-26T04:12:20.233Z,95957.28
2022-07-26T04:14:46.610Z,95958.13
2022-07-26T04:17:13.190Z,95965.78
2022-07-26T04:19:40.039Z,95960.84
2022-07-26T04:22:06.433Z,95962.00
2022-07-26T04:24:33.146Z,95963.84
2022-07-26T04:26:59.593Z,95972.59
2022-07-26T04:29:26.019Z,95968.16
2022-07-26T04:31:52.594Z,95963.88
2022-07-26T04:34:18.974Z,95962.97
2022-07-26T04:36:45.407Z,95958.75
2022-07-26T04:39:11.900Z,95964.13
2022-07-26T04:41:38.294Z,95965.00
2022-07-26T04:44:04.887Z,95958.75
2022-07-26T04:46:31.624Z,95968.16
2022-07-26T04:48:58.098Z,95963.66
2022-07-26T04:51:24.571Z,95953.03
2022-07-26T04:53:51.012Z,95957.94
2022-07-26T04:56:17.452Z,95962.88
2022-07-26T04:58:43.859Z,95958.72
2022-07-26T05:01:11.145Z,95964.78
2022-07-26T05:03:37.952Z,95966.19
2022-07-26T05:06:04.387Z,95961.75
2022-07-26T05:08:30.834Z,95960.13
2022-07-26T05:10:57.271Z,95965.34
2022-07-26T05:13:30.609Z,95962.78
2022-07-26T05:15:57.383Z,95962.00
2022-07-26T05:18:23.778Z,95961.66
2022-07-26T05:20:50.159Z,95966.72
2022-07-26T05:23:16.573Z,95963.28
2022-07-26T05:25:42.954Z,95958.81
2022-07-26T05:28:09.439Z,95963.34
2022-07-26T05:30:36.023Z,95961.97
2022-07-26T05:33:02.442Z,95959.06
2022-07-26T05:35:28.858Z,95968.63
2022-07-26T05:37:55.317Z,95966.09
2022-07-26T05:40:21.696Z,95961.22
2022-07-26T05:42:48.126Z,95961.09
2022-07-26T05:45:14.522Z,95966.84
2022-07-26T05:47:40.899Z,95956.44
2022-07-26T05:50:07.302Z,95962.47
2022-07-26T05:52:33.792Z,95958.06
2022-07-26T05:55:00.218Z,95963.88
2022-07-26T05:57:26.655Z,95962.88
2022-07-26T05:59:53.207Z,95964.44
2022-07-26T06:02:19.667Z,95965.94
2022-07-26T06:04:47.401Z,95967.25
2022-07-26T06:07:14.140Z,95964.22
2022-07-26T06:09:40.598Z,95964.00
2022-07-26T06:12:07.093Z,95968.56
2022-07-26T06:14:33.541Z,95976.19
2022-07-26T06:16:59.995Z,95970.50
2022-07-26T06:19:26.432Z,95970.59
2022-07-26T06:21:52.851Z,95965.97
2022-07-26T06:24:19.255Z,95969.31
2022-07-26T06:26:45.653Z,95964.44
2022-07-26T06:29:12.065Z,95979.69
2022-07-26T06:31:38.500Z,95979.16
2022-07-26T06:34:05.012Z,95976.16
2022-07-26T06:36:31.618Z,95982.84
2022-07-26T06:38:58.079Z,95972.00
2022-07-26T06:41:24.480Z,95971.41
2022-07-26T06:43:51.060Z,95973.69
2022-07-26T06:46:17.571Z,95979.06
2022-07-26T06:48:47.424Z,95976.78
2022-07-26T06:51:14.160Z,95981.00
2022-07-26T06:53:40.569Z,95979.16
2022-07-26T06:56:07.119Z,95976.59
2022-07-26T06:58:33.560Z,95975.41
2022-07-26T07:01:00.055Z,95972.84
2022-07-26T07:03:26.559Z,95978.63
2022-07-26T07:05:54.567Z,95986.06
2022-07-26T07:08:20.996Z,95976.59
2022-07-26T07:10:50.841Z,95982.38
2022-07-26T07:13:17.459Z,95982.28
2022-07-26T07:15:43.863Z,95982.16
2022-07-26T07:18:10.312Z,95980.97
2022-07-26T07:20:36.735Z,95983.03
2022-07-26T07:23:03.120Z,95980.34
2022-07-26T07:25:30.788Z,95982.16
2022-07-26T07:27:57.598Z,95980.00
2022-07-26T07:30:24.060Z,95979.25
2022-07-26T07:32:50.464Z,95970.44
2022-07-26T07:35:16.907Z,95981.31
2022-07-26T07:37:53.605Z,95974.00
2022-07-26T07:40:20.656Z,95974.22
2022-07-26T07:42:47.054Z,95970.00
2022-07-26T07:45:13.451Z,95974.41
2022-07-26T07:47:39.889Z,95967.94
2022-07-26T07:50:06.259Z,95964.41
2022-07-26T07:52:32.654Z,95962.16
2022-07-26T07:55:28.680Z,95968.38
2022-07-26T07:57:45.618Z,95956.88
2022-07-26T08:00:12.724Z,95956.88
2022-07-26T08:02:42.354Z,95965.25
2022-07-26T08:05:14.256Z,95968.72
2022-07-26T08:07:41.710Z,95953.28
2022-07-26T08:10:08.118Z,95951.00
2022-07-26T08:12:34.567Z,95959.91
2022-07-26T08:15:01.773Z,95958.97
2022-07-26T08:17:34.067Z,95956.28
2022-07-26T08:20:01.652Z,95949.81
2022-07-26T08:22:28.055Z,95953.25
2022-07-26T08:24:54.504Z,95952.38
2022-07-26T08:27:20.927Z,95948.31
2022-07-26T08:29:47.334Z,95954.44
2022-07-26T08:32:13.738Z,95960.13
2022-07-26T08:34:40.331Z,95954.97
2022-07-26T08:37:17.130Z,95955.09
2022-07-26T08:39:44.405Z,95947.59
2022-07-26T08:42:10.827Z,95956.19
2022-07-26T08:44:37.243Z,95957.66
2022-07-26T08:47:03.823Z,95960.91
2022-07-26T08:49:30.330Z,95958.88
2022-07-26T08:51:56.760Z,95951.97
2022-07-26T08:54:23.221Z,95950.81
2022-07-26T08:56:49.598Z,95954.34
2022-07-26T08:59:20.868Z,95962.41
2022-07-26T09:01:48.354Z,95959.41
2022-07-26T09:04:30.015Z,95952.53
2022-07-26T09:06:57.899Z,95957.66
2022-07-26T09:09:24.307Z,95958.66
2022-07-26T09:11:50.705Z,95957.91
2022-07-26T09:14:17.245Z,95957.56
2022-07-26T09:16:43.660Z,95950.47
2022-07-26T09:19:10.295Z,95950.16
2022-07-26T09:21:36.931Z,95944.56
2022-07-26T09:24:03.340Z,95937.69
2022-07-26T09:26:29.739Z,95934.56
2022-07-26T09:28:56.195Z,95944.69
2022-07-26T09:31:22.675Z,95945.75
2022-07-26T09:33:49.153Z,95943.00
2022-07-26T09:36:15.709Z,95941.78
2022-07-26T09:38:42.081Z,95943.69
2022-07-26T09:41:08.491Z,95944.22
2022-07-26T09:43:35.083Z,95949.53
2022-07-26T09:46:01.557Z,95951.56
2022-07-26T09:48:36.605Z,95942.44
2022-07-26T09:51:07.544Z,95943.38
2022-07-26T09:53:38.455Z,95950.06
2022-07-26T09:56:04.963Z,95949.63
2022-07-26T09:58:31.400Z,95952.84
2022-07-26T10:01:02.322Z,95950.38
2022-07-26T10:03:29.103Z,95946.84
2022-07-26T10:05:55.572Z,95944.78
2022-07-26T10:08:21.947Z,95954.25
2022-07-26T10:10:48.355Z,95944.91
2022-07-26T10:13:16.321Z,95939.53
2022-07-26T10:15:42.982Z,95938.34
2022-07-26T10:18:09.460Z,95932.63
2022-07-26T10:20:43.139Z,95937.94
2022-07-26T10:23:09.588Z,95934.16
2022-07-26T10:25:35.994Z,95936.16
2022-07-26T10:28:02.456Z,95943.81
2022-07-26T10:30:38.341Z,95948.47
2022-07-26T10:33:05.150Z,95944.38
2022-07-26T10:35:31.615Z,95940.84
2022-07-26T10:37:58.008Z,95941.28
2022-07-26T10:40:24.523Z,95939.13
2022-07-26T10:42:50.961Z,95939.84
2022-07-26T10:45:17.354Z,95939.19
2022-07-26T10:47:43.789Z,95941.44
2022-07-26T10:50:10.227Z,95938.63
2022-07-26T10:52:36.697Z,95931.66
2022-07-26T10:55:03.301Z,95928.28
2022-07-26T10:57:29.703Z,95935.44
2022-07-26T10:59:56.845Z,95930.38
2022-07-26T11:02:23.535Z,95928.00
2022-07-26T11:04:50.264Z,95919.41
2022-07-26T11:07:16.669Z,95918.97
2022-07-26T11:09:43.126Z,95914.91
2022-07-26T11:12:09.529Z,95916.63
2022-07-26T11:14:35.936Z,95913.41
2022-07-26T11:17:02.788Z,95907.94
2022-07-26T11:19:29.177Z,95898.19
2022-07-26T11:21:55.571Z,95908.41
2022-07-26T11:24:22.046Z,95902.88
2022-07-26T11:26:48.486Z,95901.59
2022-07-26T11:29:17.203Z,95898.97
2022-07-26T11:31:52.030Z,95898.72
2022-07-26T11:34:27.752Z,95888.81
2022-07-26T11:36:54.208Z,95891.41
2022-07-26T11:39:20.588Z,95889.50
2022-07-26T11:41:46.972Z,95890.31
2022-07-26T11:44:13.841Z,95885.53
2022-07-26T11:46:40.545Z,95880.00
2022-07-26T11:49:07.036Z,95880.41
2022-07-26T11:51:33.505Z,95876.97
2022-07-26T11:53:59.915Z,95875.59
2022-07-26T11:56:26.299Z,95873.31
2022-07-26T11:58:52.816Z,95870.59
2022-07-26T12:01:19.223Z,95866.31
2022-07-26T12:03:45.678Z,95854.91
2022-07-26T12:06:12.179Z,95856.22
2022-07-26T12:08:38.582Z,95851.59
2022-07-26T12:11:05.091Z,95850.00
2022-07-26T12:13:39.825Z,95846.53
2022-07-26T12:16:18.192Z,95844.19
2022-07-26T12:18:44.799Z,95846.47
2022-07-26T12:21:11.632Z,95847.97
2022-07-26T12:23:38.186Z,95846.78
2022-07-26T12:26:09.792Z,95853.66
2022-07-26T12:28:36.428Z,95855.38
2022-07-26T12:31:02.885Z,95842.25
2022-07-26T12:33:29.473Z,95846.88
2022-07-26T12:35:55.856Z,95840.78
2022-07-26T12:38:22.251Z,95840.25
2022-07-26T12:40:48.719Z,95828.66
2022-07-26T12:43:15.106Z,95829.81
2022-07-26T12:45:41.574Z,95827.91
2022-07-26T12:48:08.208Z,95830.44
2022-07-26T12:50:34.608Z,95819.72
2022-07-26T12:53:01.000Z,95817.25
2022-07-26T12:55:27.472Z,95830.03
2022-07-26T12:57:53.886Z,95822.75
2022-07-26T13:00:23.561Z,95819.94
2022-07-26T13:02:50.048Z,95817.69
2022-07-26T13:05:16.592Z,95813.41
2022-07-26T13:07:43.100Z,95806.63
2022-07-26T13:12:55.942Z,95801.91
2022-07-26T13:15:22.369Z,95796.31
2022-07-26T13:17:49.352Z,95798.59
2022-07-26T13:20:15.830Z,95794.28
2022-07-26T13:22:43.766Z,95794.38
2022-07-26T13:25:10.300Z,95804.34
2022-07-26T13:27:41.391Z,95797.50
2022-07-26T13:30:11.062Z,95786.44
2022-07-26T13:32:37.798Z,95795.69
2022-07-26T13:35:04.270Z,95788.25
2022-07-26T13:37:30.749Z,95781.59
2022-07-26T13:39:57.155Z,95788.78
2022-07-26T13:42:23.611Z,95783.56
2022-07-26T13:44:50.181Z,95793.75
2022-07-26T13:47:16.653Z,95776.88
2022-07-26T13:49:43.134Z,95780.97
2022-07-26T13:52:13.617Z,95787.19
2022-07-26T13:54:42.340Z,95789.28
2022-07-26T13:57:08.748Z,95791.06
2022-07-26T13:59:38.272Z,95792.03
2022-07-26T14:02:04.912Z,95788.47
2022-07-26T14:04:31.538Z,95783.88
2022-07-26T14:06:57.968Z,95779.25
2022-07-26T14:09:24.490Z,95786.09
2022-07-26T14:11:50.916Z,95769.69
2022-07-26T14:14:17.319Z,95787.94
2022-07-26T14:16:43.774Z,95782.13
2022-07-26T14:19:15.061Z,95781.81
2022-07-26T14:21:58.735Z,95786.56
2022-07-26T14:24:26.240Z,95783.03
2022-07-26T14:26:56.861Z,95788.03
2022-07-26T14:29:25.643Z,95785.16
2022-07-26T14:31:52.187Z,95778.59
2022-07-26T14:34:18.727Z,95782.13
2022-07-26T14:36:47.995Z,95778.59
2022-07-26T14:39:14.888Z,95772.69
2022-07-26T14:41:41.315Z,95776.97
2022-07-26T14:44:07.875Z,95772.28
2022-07-26T14:46:34.536Z,95785.25
2022-07-26T14:49:02.367Z,95772.59
2022-07-26T14:51:28.794Z,95776.13
2022-07-26T14:53:55.368Z,95770.78
2022-07-26T14:56:21.779Z,95775.59
2022-07-26T14:58:48.167Z,95772.59
2022-07-26T15:01:14.771Z,95769.47
2022-07-26T15:03:41.253Z,95756.28
2022-07-26T15:06:07.715Z,95761.75
2022-07-26T15:08:34.273Z,95758.63
2022-07-26T15:11:00.689Z,95754.34
2022-07-26T15:13:27.245Z,95759.06
2022-07-26T15:15:53.701Z,95754.44
2022-07-26T15:18:20.236Z,95759.81
2022-07-26T15:20:46.640Z,95755.06
2022-07-26T15:23:14.143Z,95748.84
2022-07-26T15:25:41.727Z,95755.22
2022-07-26T15:28:08.287Z,95748.78
2022-07-26T15:30:36.912Z,95738.34
2022-07-26T15:33:03.335Z,95746.53
2022-07-26T15:35:29.943Z,95741.25
2022-07-26T15:37:56.429Z,95742.31
2022-07-26T15:40:22.831Z,95735.34
2022-07-26T15:42:49.227Z,95737.41
2022-07-26T15:45:16.006Z,95735.25
2022-07-26T15:48:09.424Z,95748.00
2022-07-26T15:50:28.867Z,95730.94
2022-07-26T15:52:55.446Z,95729.88
2022-07-26T15:55:21.901Z,95740.19
2022-07-26T15:57:48.443Z,95730.50
2022-07-26T16:00:14.852Z,95732.13
2022-07-26T16:02:41.396Z,95728.91
2022-07-26T16:05:08.122Z,95737.72
2022-07-26T16:07:34.568Z,95731.28
2022-07-26T16:10:01.063Z,95731.13
2022-07-26T16:12:27.521Z,95732.34
2022-07-26T16:14:53.975Z,95729.97
2022-07-26T16:17:20.489Z,95735.31
2022-07-26T16:19:47.021Z,95732.56
2022-07-26T16:22:13.504Z,95731.47
2022-07-26T16:24:40.029Z,95728.38
2022-07-26T16:27:06.492Z,95722.78
2022-07-26T16:29:32.933Z,95724.38
2022-07-26T16:31:59.380Z,95722.03
2022-07-26T16:34:25.873Z,95722.69
2022-07-26T16:36:52.291Z,95723.19
2022-07-26T16:39:18.678Z,95718.91
2022-07-26T16:41:45.121Z,95714.94
2022-07-26T16:44:11.573Z,95721.81
2022-07-26T16:46:38.030Z,95723.31
2022-07-26T16:49:04.713Z,95721.34
2022-07-26T16:51:31.512Z,95717.94
2022-07-26T16:53:57.906Z,95716.44
2022-07-26T16:56:24.387Z,95721.06
2022-07-26T16:58:50.805Z,95728.66
2022-07-26T17:01:17.270Z,95719.75
2022-07-26T17:03:44.283Z,95717.06
2022-07-26T17:06:10.674Z,95730.28
2022-07-26T17:08:37.072Z,95728.03
2022-07-26T17:11:03.749Z,95722.88
2022-07-26T17:13:30.327Z,95724.50
2022-07-26T17:15:56.807Z,95734.41
2022-07-26T17:18:23.359Z,95734.53
2022-07-26T17:20:49.847Z,95728.81
2022-07-26T17:23:16.248Z,95728.47
2022-07-26T17:25:42.744Z,95726.75
2022-07-26T17:28:09.137Z,95728.16
2022-07-26T17:30:35.536Z,95723.84
2022-07-26T17:33:02.186Z,95725.47
2022-07-26T17:35:28.603Z,95728.47
2022-07-26T17:37:54.980Z,95720.41
2022-07-26T17:40:21.653Z,95727.38
2022-07-26T17:42:52.313Z,95729.97
2022-07-26T17:45:18.693Z,95732.97
2022-07-26T17:47:45.111Z,95734.69
2022-07-26T17:50:35.261Z,95732.00
2022-07-26T17:52:57.894Z,95728.81
2022-07-26T17:55:24.265Z,95731.91
2022-07-26T17:57:50.661Z,95730.97
2022-07-26T18:00:17.095Z,95732.75
2022-07-26T18:02:43.466Z,95740.25
2022-07-26T18:05:09.902Z,95745.84
2022-07-26T18:07:36.377Z,95741.69
2022-07-26T18:10:02.775Z,95743.59
2022-07-26T18:12:29.168Z,95748.53
2022-07-26T18:14:55.631Z,95751.22
2022-07-26T18:17:22.021Z,95749.84
2022-07-26T18:19:48.402Z,95745.19
2022-07-26T18:22:14.857Z,95741.25
2022-07-26T18:24:41.350Z,95747.78
2022-07-26T18:27:07.799Z,95740.25
2022-07-26T18:29:34.303Z,95749.50
2022-07-26T18:32:10.963Z,95738.31
2022-07-26T18:34:37.454Z,95743.38
2022-07-26T18:37:03.852Z,95735.00
2022-07-26T18:39:32.768Z,95743.06
2022-07-26T18:41:59.639Z,95740.78
2022-07-26T18:44:26.020Z,95742.75
2022-07-26T18:46:52.516Z,95748.44
2022-07-26T18:49:20.192Z,95751.31
2022-07-26T18:51:48.862Z,95758.88
2022-07-26T18:54:15.421Z,95748.00
2022-07-26T18:56:41.863Z,95750.06
2022-07-26T18:59:08.632Z,95750.47
2022-07-26T19:01:35.461Z,95750.13
2022-07-26T19:04:06.536Z,95751.75
2022-07-26T19:06:33.592Z,95750.97
2022-07-26T19:08:59.981Z,95751.44
2022-07-26T19:11:26.387Z,95756.03
2022-07-26T19:13:52.765Z,95761.41
2022-07-26T19:16:19.308Z,95765.28
2022-07-26T19:18:49.426Z,95764.53
2022-07-26T19:21:17.299Z,95772.53
2022-07-26T19:23:43.699Z,95768.81
2022-07-26T19:26:10.238Z,95767.22
2022-07-26T19:28:36.615Z,95768.59
2022-07-26T19:31:03.062Z,95772.81
2022-07-26T19:33:29.548Z,95773.22
2022-07-26T19:35:55.956Z,95771.84
2022-07-26T19:38:22.328Z,95770.53
2022-07-26T19:40:48.785Z,95771.38
2022-07-26T19:43:15.164Z,95773.34
2022-07-26T19:45:41.624Z,95773.66
2022-07-26T19:48:08.082Z,95777.41
2022-07-26T19:50:34.471Z,95788.34
2022-07-26T19:53:00.861Z,95777.00
2022-07-26T19:55:27.325Z,95781.94
2022-07-26T19:57:53.727Z,95783.44
2022-07-26T20:00:20.123Z,95786.97
2022-07-26T20:02:46.602Z,95792.88
2022-07-26T20:05:13.029Z,95787.72
2022-07-26T20:07:39.400Z,95788.25
2022-07-26T20:13:05.319Z,95795.38
2022-07-26T20:15:31.704Z,95796.53
2022-07-26T20:17:58.048Z,95789.25
2022-07-26T20:20:24.398Z,95792.25
2022-07-26T20:22:50.729Z,95797.66
2022-07-26T20:25:21.426Z,95795.09
2022-07-26T20:27:48.295Z,95798.44
2022-07-26T20:30:14.653Z,95799.44
2022-07-26T20:32:40.977Z,95802.13
2022-07-26T20:35:07.314Z,95798.47
2022-07-26T20:37:33.951Z,95802.22
2022-07-26T20:40:00.291Z,95804.81
2022-07-26T20:42:26.647Z,95808.97
2022-07-26T20:44:54.169Z,95807.19
2022-07-26T20:47:20.703Z,95808.34
2022-07-26T20:49:47.068Z,95798.69
2022-07-26T20:52:13.614Z,95805.44
2022-07-26T20:54:39.930Z,95803.06
2022-07-26T20:57:06.252Z,95806.13
2022-07-26T20:59:32.606Z,95796.22
2022-07-26T21:01:59.072Z,95797.59
2022-07-26T21:04:25.463Z,95798.69
2022-07-26T21:06:51.835Z,95799.44
2022-07-26T21:09:18.911Z,95797.16
2022-07-26T21:11:45.252Z,95793.75
2022-07-26T21:14:11.610Z,95793.94
2022-07-26T21:16:38.014Z,95787.09
2022-07-26T21:19:04.385Z,95788.72
2022-07-26T21:21:30.713Z,95796.63
2022-07-26T21:23:57.076Z,95799.44
2022-07-26T21:26:23.424Z,95800.13
2022-07-26T21:28:49.744Z,95799.97
2022-07-26T21:31:16.093Z,95794.06
2022-07-26T21:33:42.405Z,95791.81
2022-07-26T21:36:08.726Z,95790.84
2022-07-26T21:38:35.087Z,95793.63
2022-07-26T21:41:01.448Z,95796.00
2022-07-26T21:43:27.777Z,95789.25
2022-07-26T21:45:54.158Z,95783.00
2022-07-26T21:48:21.142Z,95783.75
2022-07-26T21:50:47.489Z,95784.19
2022-07-26T21:53:13.814Z,95784.19
2022-07-26T21:55:40.160Z,95785.50
2022-07-26T21:58:06.559Z,95790.94
2022-07-26T22:00:32.896Z,95794.94
2022-07-26T22:02:59.251Z,95794.28
2022-07-26T22:05:25.577Z,95804.06
2022-07-26T22:07:51.898Z,95806.72
2022-07-26T22:10:18.244Z,95803.50
2022-07-26T22:12:44.578Z,95803.94
2022-07-26T22:15:10.931Z,95813.50
2022-07-26T22:17:37.286Z,95800.16
2022-07-26T22:20:03.606Z,95804.03
2022-07-26T22:22:29.944Z,95808.75
2022-07-26T22:24:56.309Z,95816.19
2022-07-26T22:27:22.667Z,95805.75
2022-07-26T22:29:49.121Z,95814.34
2022-07-26T22:32:15.498Z,95806.19
2022-07-26T22:34:41.853Z,95802.84
2022-07-26T22:37:08.193Z,95795.69
2022-07-26T22:39:34.525Z,95794.16
2022-07-26T22:42:14.822Z,95802.53
2022-07-26T22:44:41.909Z,95787.50
2022-07-26T22:47:08.236Z,95792.25
2022-07-26T22:49:34.596Z,95799.28
2022-07-26T22:52:00.989Z,95790.41
2022-07-26T22:54:27.307Z,95800.31
2022-07-26T22:56:53.641Z,95796.22
2022-07-26T22:59:19.994Z,95789.66
2022-07-26T23:01:46.825Z,95799.31
2022-07-26T23:04:13.238Z,95791.03
2022-07-26T23:06:39.692Z,95795.09
2022-07-26T23:09:06.569Z,95805.84
2022-07-26T23:11:32.904Z,95793.69
2022-07-26T23:13:59.338Z,95794.13
2022-07-26T23:16:25.755Z,95811.38
2022-07-26T23:18:52.410Z,95805.69
2022-07-26T23:21:18.787Z,95802.69
2022-07-26T23:23:46.697Z,95805.66
2022-07-26T23:26:13.020Z,95803.19
2022-07-26T23:28:39.372Z,95799.09
2022-07-26T23:31:05.777Z,95803.88
2022-07-26T23:33:51.473Z,95803.69
2022-07-26T23:36:18.532Z,95799.50
2022-07-26T23:38:44.866Z,95799.94
2022-07-26T23:41:11.196Z,95803.47
2022-07-26T23:43:37.561Z,95796.56
2022-07-26T23:46:03.873Z,95800.94
2022-07-26T23:48:30.230Z,95804.72
2022-07-26T23:50:57.773Z,95799.03
2022-07-26T23:53:27.016Z,95807.50
2022-07-26T23:55:53.676Z,95798.78
2022-07-26T23:58:20.031Z,95795.84
